sensor_id;sensor_type;location;lat;lon;timestamp;P1;durP1;ratioP1;P2;durP2;ratioP2
14734;SDS011;7458;49.002;8.472;2023-06-01T00:02:05;1065.13;;;945.00;;
14734;SDS011;7458;49.002;8.472;2023-06-01T00:04:31;1107.50;;;988.53;;
14734;SDS011;7458;49.002;8.472;2023-06-01T00:06:57;1070.63;;;952.17;;
14734;SDS011;7458;49.002;8.472;2023-06-01T00:09:26;1061.80;;;944.28;;
14734;SDS011;7458;49.002;8.472;2023-06-01T00:11:52;1098.18;;;979.35;;
14734;SDS011;7458;49.002;8.472;2023-06-01T00:14:18;1082.30;;;921.08;;
14734;SDS011;7458;49.002;8.472;2023-06-01T00:16:44;1106.43;;;987.08;;
14734;SDS011;7458;49.002;8.472;2023-06-01T00:19:10;1083.72;;;949.58;;
14734;SDS011;7458;49.002;8.472;2023-06-01T00:21:36;1102.32;;;983.42;;
14734;SDS011;7458;49.002;8.472;2023-06-01T00:24:02;1077.25;;;952.85;;
14734;SDS011;7458;49.002;8.472;2023-06-01T00:26:28;1079.80;;;947.60;;
14734;SDS011;7458;49.002;8.472;2023-06-01T00:28:57;1103.50;;;983.97;;
14734;SDS011;7458;49.002;8.472;2023-06-01T00:31:26;1098.70;;;979.80;;
14734;SDS011;7458;49.002;8.472;2023-06-01T00:33:52;1095.25;;;976.40;;
14734;SDS011;7458;49.002;8.472;2023-06-01T00:36:18;1067.25;;;947.78;;
14734;SDS011;7458;49.002;8.472;2023-06-01T00:38:44;1071.82;;;948.05;;
14734;SDS011;7458;49.002;8.472;2023-06-01T00:41:10;1089.70;;;971.35;;
14734;SDS011;7458;49.002;8.472;2023-06-01T00:43:36;1073.13;;;954.17;;
14734;SDS011;7458;49.002;8.472;2023-06-01T00:46:02;1062.15;;;938.63;;
14734;SDS011;7458;49.002;8.472;2023-06-01T00:48:28;1092.47;;;973.70;;
14734;SDS011;7458;49.002;8.472;2023-06-01T00:50:54;1090.78;;;972.38;;
14734;SDS011;7458;49.002;8.472;2023-06-01T00:53:22;1069.22;;;944.13;;
14734;SDS011;7458;49.002;8.472;2023-06-01T00:55:49;1064.03;;;942.60;;
14734;SDS011;7458;49.002;8.472;2023-06-01T00:58:15;1060.00;;;934.13;;
14734;SDS011;7458;49.002;8.472;2023-06-01T01:00:42;1088.82;;;970.25;;
14734;SDS011;7458;49.002;8.472;2023-06-01T01:03:07;1104.60;;;988.60;;
14734;SDS011;7458;49.002;8.472;2023-06-01T01:05:35;1102.03;;;982.38;;
14734;SDS011;7458;49.002;8.472;2023-06-01T01:11:06;1071.03;;;945.00;;
14734;SDS011;7458;49.002;8.472;2023-06-01T01:31:32;1095.13;;;934.83;;
14734;SDS011;7458;49.002;8.472;2023-06-01T01:33:59;1084.93;;;935.20;;
14734;SDS011;7458;49.002;8.472;2023-06-01T01:36:28;1078.82;;;938.97;;
14734;SDS011;7458;49.002;8.472;2023-06-01T01:38:55;1073.53;;;954.73;;
14734;SDS011;7458;49.002;8.472;2023-06-01T01:41:21;1087.07;;;968.40;;
14734;SDS011;7458;49.002;8.472;2023-06-01T01:43:50;1086.80;;;902.95;;
14734;SDS011;7458;49.002;8.472;2023-06-01T01:46:25;1078.22;;;923.97;;
14734;SDS011;7458;49.002;8.472;2023-06-01T01:49:08;1072.32;;;923.75;;
14734;SDS011;7458;49.002;8.472;2023-06-01T01:54:55;1111.15;;;898.05;;
14734;SDS011;7458;49.002;8.472;2023-06-01T01:57:23;1093.43;;;897.92;;
14734;SDS011;7458;49.002;8.472;2023-06-01T01:59:51;1076.00;;;957.53;;
14734;SDS011;7458;49.002;8.472;2023-06-01T02:02:18;1067.88;;;948.08;;
14734;SDS011;7458;49.002;8.472;2023-06-01T02:04:45;1085.63;;;928.90;;
14734;SDS011;7458;49.002;8.472;2023-06-01T02:07:11;1080.83;;;917.00;;
14734;SDS011;7458;49.002;8.472;2023-06-01T02:09:37;1089.93;;;971.17;;
14734;SDS011;7458;49.002;8.472;2023-06-01T02:12:04;1091.57;;;973.03;;
14734;SDS011;7458;49.002;8.472;2023-06-01T02:14:31;1091.03;;;972.53;;
14734;SDS011;7458;49.002;8.472;2023-06-01T02:16:57;1069.27;;;937.57;;
14734;SDS011;7458;49.002;8.472;2023-06-01T02:19:25;1091.67;;;972.67;;
14734;SDS011;7458;49.002;8.472;2023-06-01T02:21:52;1081.33;;;912.07;;
14734;SDS011;7458;49.002;8.472;2023-06-01T02:24:18;1080.13;;;961.60;;
14734;SDS011;7458;49.002;8.472;2023-06-01T02:26:45;1084.97;;;966.23;;
14734;SDS011;7458;49.002;8.472;2023-06-01T02:29:18;1089.33;;;970.43;;
14734;SDS011;7458;49.002;8.472;2023-06-01T02:31:49;1088.50;;;969.63;;
14734;SDS011;7458;49.002;8.472;2023-06-01T02:34:16;1064.87;;;929.23;;
14734;SDS011;7458;49.002;8.472;2023-06-01T02:36:42;1086.30;;;967.87;;
14734;SDS011;7458;49.002;8.472;2023-06-01T02:39:08;1083.57;;;965.23;;
14734;SDS011;7458;49.002;8.472;2023-06-01T02:41:34;1078.53;;;932.03;;
14734;SDS011;7458;49.002;8.472;2023-06-01T02:44:00;1098.20;;;891.20;;
14734;SDS011;7458;49.002;8.472;2023-06-01T02:46:27;1083.70;;;933.73;;
14734;SDS011;7458;49.002;8.472;2023-06-01T02:48:53;1094.97;;;894.27;;
14734;SDS011;7458;49.002;8.472;2023-06-01T02:51:20;1089.90;;;905.37;;
14734;SDS011;7458;49.002;8.472;2023-06-01T02:53:46;1074.45;;;927.35;;
14734;SDS011;7458;49.002;8.472;2023-06-01T02:56:11;1096.30;;;920.93;;
14734;SDS011;7458;49.002;8.472;2023-06-01T02:58:38;1076.33;;;924.17;;
14734;SDS011;7458;49.002;8.472;2023-06-01T03:01:04;1086.90;;;968.30;;
14734;SDS011;7458;49.002;8.472;2023-06-01T03:03:32;1068.17;;;930.43;;
14734;SDS011;7458;49.002;8.472;2023-06-01T03:05:58;1076.90;;;919.53;;
14734;SDS011;7458;49.002;8.472;2023-06-01T03:08:25;1088.43;;;969.80;;
14734;SDS011;7458;49.002;8.472;2023-06-01T03:10:51;1084.47;;;966.00;;
14734;SDS011;7458;49.002;8.472;2023-06-01T03:13:17;1066.63;;;933.90;;
14734;SDS011;7458;49.002;8.472;2023-06-01T03:15:43;1086.00;;;967.40;;
14734;SDS011;7458;49.002;8.472;2023-06-01T03:18:09;1078.67;;;960.50;;
14734;SDS011;7458;49.002;8.472;2023-06-01T03:20:35;1068.53;;;929.33;;
14734;SDS011;7458;49.002;8.472;2023-06-01T03:23:01;1073.60;;;913.20;;
14734;SDS011;7458;49.002;8.472;2023-06-01T03:25:27;1086.87;;;895.63;;
14734;SDS011;7458;49.002;8.472;2023-06-01T03:27:53;1079.03;;;937.60;;
14734;SDS011;7458;49.002;8.472;2023-06-01T03:30:18;1071.90;;;932.50;;
14734;SDS011;7458;49.002;8.472;2023-06-01T03:32:44;1076.07;;;922.40;;
14734;SDS011;7458;49.002;8.472;2023-06-01T03:35:11;1086.17;;;967.57;;
14734;SDS011;7458;49.002;8.472;2023-06-01T03:37:38;1076.83;;;957.93;;
14734;SDS011;7458;49.002;8.472;2023-06-01T03:40:08;1072.43;;;954.40;;
14734;SDS011;7458;49.002;8.472;2023-06-01T03:42:41;1064.33;;;921.67;;
14734;SDS011;7458;49.002;8.472;2023-06-01T03:45:10;1061.30;;;927.37;;
14734;SDS011;7458;49.002;8.472;2023-06-01T03:47:38;1076.97;;;958.53;;
14734;SDS011;7458;49.002;8.472;2023-06-01T03:50:05;1078.53;;;960.17;;
14734;SDS011;7458;49.002;8.472;2023-06-01T03:52:33;1077.43;;;959.03;;
14734;SDS011;7458;49.002;8.472;2023-06-01T03:55:00;1077.33;;;958.63;;
14734;SDS011;7458;49.002;8.472;2023-06-01T03:57:35;1066.75;;;933.63;;
14734;SDS011;7458;49.002;8.472;2023-06-01T04:00:03;1069.93;;;934.33;;
14734;SDS011;7458;49.002;8.472;2023-06-01T04:02:44;1072.10;;;921.07;;
14734;SDS011;7458;49.002;8.472;2023-06-01T04:05:22;1064.20;;;945.17;;
14734;SDS011;7458;49.002;8.472;2023-06-01T04:07:51;1103.20;;;872.13;;
14734;SDS011;7458;49.002;8.472;2023-06-01T04:10:19;1076.00;;;921.37;;
14734;SDS011;7458;49.002;8.472;2023-06-01T04:12:46;1085.77;;;906.80;;
14734;SDS011;7458;49.002;8.472;2023-06-01T04:15:15;1100.03;;;885.53;;
14734;SDS011;7458;49.002;8.472;2023-06-01T04:17:44;1076.57;;;924.53;;
14734;SDS011;7458;49.002;8.472;2023-06-01T04:20:11;1096.00;;;892.37;;
14734;SDS011;7458;49.002;8.472;2023-06-01T04:22:41;1093.77;;;898.47;;
14734;SDS011;7458;49.002;8.472;2023-06-01T04:25:09;1066.60;;;947.93;;
14734;SDS011;7458;49.002;8.472;2023-06-01T04:27:43;1068.90;;;918.67;;
14734;SDS011;7458;49.002;8.472;2023-06-01T04:30:13;1067.20;;;923.23;;
14734;SDS011;7458;49.002;8.472;2023-06-01T04:32:41;1077.50;;;904.10;;
14734;SDS011;7458;49.002;8.472;2023-06-01T04:35:09;1076.57;;;956.90;;
14734;SDS011;7458;49.002;8.472;2023-06-01T04:37:36;1060.07;;;921.23;;
14734;SDS011;7458;49.002;8.472;2023-06-01T04:40:08;1064.60;;;946.43;;
14734;SDS011;7458;49.002;8.472;2023-06-01T04:42:39;1063.77;;;944.23;;
14734;SDS011;7458;49.002;8.472;2023-06-01T04:45:08;1063.60;;;946.43;;
14734;SDS011;7458;49.002;8.472;2023-06-01T04:47:35;1062.60;;;911.33;;
14734;SDS011;7458;49.002;8.472;2023-06-01T04:50:03;1066.27;;;948.27;;
14734;SDS011;7458;49.002;8.472;2023-06-01T04:52:35;1051.93;;;914.23;;
14734;SDS011;7458;49.002;8.472;2023-06-01T04:55:06;1054.30;;;920.37;;
14734;SDS011;7458;49.002;8.472;2023-06-01T04:57:34;1054.40;;;937.60;;
14734;SDS011;7458;49.002;8.472;2023-06-01T05:00:04;1054.03;;;919.27;;
14734;SDS011;7458;49.002;8.472;2023-06-01T05:02:41;1061.03;;;944.03;;
14734;SDS011;7458;49.002;8.472;2023-06-01T05:05:08;1058.40;;;941.60;;
14734;SDS011;7458;49.002;8.472;2023-06-01T05:07:35;1058.65;;;942.17;;
14734;SDS011;7458;49.002;8.472;2023-06-01T05:10:03;1052.83;;;936.30;;
14734;SDS011;7458;49.002;8.472;2023-06-01T05:12:31;1059.60;;;942.95;;
14734;SDS011;7458;49.002;8.472;2023-06-01T05:14:58;1055.37;;;918.50;;
14734;SDS011;7458;49.002;8.472;2023-06-01T05:17:25;1051.73;;;914.17;;
14734;SDS011;7458;49.002;8.472;2023-06-01T05:19:51;1058.47;;;903.80;;
14734;SDS011;7458;49.002;8.472;2023-06-01T05:22:17;1062.77;;;896.40;;
14734;SDS011;7458;49.002;8.472;2023-06-01T05:24:43;1057.73;;;938.33;;
14734;SDS011;7458;49.002;8.472;2023-06-01T05:27:09;1060.77;;;900.53;;
14734;SDS011;7458;49.002;8.472;2023-06-01T05:29:35;1051.40;;;915.78;;
14734;SDS011;7458;49.002;8.472;2023-06-01T05:32:01;1064.72;;;947.92;;
14734;SDS011;7458;49.002;8.472;2023-06-01T05:34:26;1061.57;;;944.80;;
14734;SDS011;7458;49.002;8.472;2023-06-01T05:36:52;1059.53;;;942.60;;
14734;SDS011;7458;49.002;8.472;2023-06-01T05:39:18;1069.95;;;951.85;;
14734;SDS011;7458;49.002;8.472;2023-06-01T05:41:43;1053.67;;;920.33;;
14734;SDS011;7458;49.002;8.472;2023-06-01T05:44:09;1057.90;;;920.80;;
14734;SDS011;7458;49.002;8.472;2023-06-01T05:46:35;1069.50;;;952.70;;
14734;SDS011;7458;49.002;8.472;2023-06-01T05:49:01;1079.28;;;961.75;;
14734;SDS011;7458;49.002;8.472;2023-06-01T05:51:27;1076.88;;;960.10;;
14734;SDS011;7458;49.002;8.472;2023-06-01T05:53:52;1065.20;;;924.28;;
14734;SDS011;7458;49.002;8.472;2023-06-01T05:56:18;1077.53;;;960.42;;
14734;SDS011;7458;49.002;8.472;2023-06-01T05:58:44;1069.57;;;925.42;;
14734;SDS011;7458;49.002;8.472;2023-06-01T06:01:15;1065.20;;;936.95;;
14734;SDS011;7458;49.002;8.472;2023-06-01T06:03:42;1100.72;;;982.75;;
14734;SDS011;7458;49.002;8.472;2023-06-01T06:06:10;1097.38;;;979.50;;
14734;SDS011;7458;49.002;8.472;2023-06-01T06:08:36;1081.40;;;963.78;;
14734;SDS011;7458;49.002;8.472;2023-06-01T06:11:02;1076.47;;;924.13;;
14734;SDS011;7458;49.002;8.472;2023-06-01T06:13:28;1084.30;;;967.03;;
14734;SDS011;7458;49.002;8.472;2023-06-01T06:15:53;1061.90;;;914.88;;
14734;SDS011;7458;49.002;8.472;2023-06-01T06:18:20;1063.72;;;937.30;;
14734;SDS011;7458;49.002;8.472;2023-06-01T06:20:47;1095.80;;;977.55;;
14734;SDS011;7458;49.002;8.472;2023-06-01T06:23:12;1107.20;;;988.67;;
14734;SDS011;7458;49.002;8.472;2023-06-01T06:25:38;1126.22;;;999.90;;
14734;SDS011;7458;49.002;8.472;2023-06-01T06:28:05;1117.75;;;998.03;;
14734;SDS011;7458;49.002;8.472;2023-06-01T06:30:31;1113.28;;;991.70;;
14734;SDS011;7458;49.002;8.472;2023-06-01T06:32:57;1186.38;;;876.47;;
14734;SDS011;7458;49.002;8.472;2023-06-01T06:35:23;1171.63;;;906.25;;
14734;SDS011;7458;49.002;8.472;2023-06-01T06:37:49;1173.13;;;910.97;;
14734;SDS011;7458;49.002;8.472;2023-06-01T06:40:15;1161.43;;;999.90;;
14734;SDS011;7458;49.002;8.472;2023-06-01T06:42:43;1180.18;;;999.90;;
14734;SDS011;7458;49.002;8.472;2023-06-01T06:45:10;1213.85;;;920.05;;
14734;SDS011;7458;49.002;8.472;2023-06-01T06:47:36;1234.38;;;999.90;;
14734;SDS011;7458;49.002;8.472;2023-06-01T06:50:02;1163.32;;;967.78;;
14734;SDS011;7458;49.002;8.472;2023-06-01T06:52:28;1178.40;;;988.05;;
14734;SDS011;7458;49.002;8.472;2023-06-01T06:54:54;1158.10;;;986.83;;
14734;SDS011;7458;49.002;8.472;2023-06-01T06:57:20;1378.20;;;999.90;;
14734;SDS011;7458;49.002;8.472;2023-06-01T06:59:46;1148.90;;;980.60;;
14734;SDS011;7458;49.002;8.472;2023-06-01T07:02:11;1234.45;;;999.90;;
14734;SDS011;7458;49.002;8.472;2023-06-01T07:04:38;1244.28;;;999.90;;
14734;SDS011;7458;49.002;8.472;2023-06-01T07:07:04;1262.93;;;999.90;;
14734;SDS011;7458;49.002;8.472;2023-06-01T07:09:32;1241.57;;;999.90;;
14734;SDS011;7458;49.002;8.472;2023-06-01T07:11:58;1145.35;;;965.67;;
14734;SDS011;7458;49.002;8.472;2023-06-01T07:14:23;1217.43;;;999.90;;
14734;SDS011;7458;49.002;8.472;2023-06-01T07:16:49;1138.03;;;999.90;;
14734;SDS011;7458;49.002;8.472;2023-06-01T07:19:15;1243.47;;;999.90;;
14734;SDS011;7458;49.002;8.472;2023-06-01T07:21:41;1260.65;;;999.90;;
14734;SDS011;7458;49.002;8.472;2023-06-01T07:24:07;1174.45;;;999.90;;
14734;SDS011;7458;49.002;8.472;2023-06-01T07:26:34;1251.03;;;999.90;;
14734;SDS011;7458;49.002;8.472;2023-06-01T07:29:00;1250.55;;;999.90;;
14734;SDS011;7458;49.002;8.472;2023-06-01T07:31:26;1128.90;;;999.90;;
14734;SDS011;7458;49.002;8.472;2023-06-01T07:33:54;1129.03;;;976.92;;
14734;SDS011;7458;49.002;8.472;2023-06-01T07:36:21;1216.03;;;999.90;;
14734;SDS011;7458;49.002;8.472;2023-06-01T07:38:48;1218.55;;;999.90;;
14734;SDS011;7458;49.002;8.472;2023-06-01T07:41:15;1124.45;;;999.90;;
14734;SDS011;7458;49.002;8.472;2023-06-01T07:43:41;1223.00;;;999.90;;
14734;SDS011;7458;49.002;8.472;2023-06-01T07:46:07;1228.70;;;999.90;;
14734;SDS011;7458;49.002;8.472;2023-06-01T07:48:32;1240.50;;;999.90;;
14734;SDS011;7458;49.002;8.472;2023-06-01T07:51:02;1121.93;;;995.65;;
14734;SDS011;7458;49.002;8.472;2023-06-01T07:53:32;1121.82;;;997.38;;
14734;SDS011;7458;49.002;8.472;2023-06-01T07:55:58;1112.43;;;989.47;;
14734;SDS011;7458;49.002;8.472;2023-06-01T07:58:24;1152.70;;;999.90;;
14734;SDS011;7458;49.002;8.472;2023-06-01T08:00:50;1125.03;;;999.90;;
14734;SDS011;7458;49.002;8.472;2023-06-01T08:03:16;1214.32;;;999.90;;
14734;SDS011;7458;49.002;8.472;2023-06-01T08:05:42;1124.22;;;999.90;;
14734;SDS011;7458;49.002;8.472;2023-06-01T08:08:09;1138.13;;;999.90;;
14734;SDS011;7458;49.002;8.472;2023-06-01T08:10:35;1202.45;;;999.90;;
14734;SDS011;7458;49.002;8.472;2023-06-01T08:13:04;1171.40;;;999.90;;
14734;SDS011;7458;49.002;8.472;2023-06-01T08:15:32;1202.25;;;999.90;;
14734;SDS011;7458;49.002;8.472;2023-06-01T08:18:01;1209.40;;;999.90;;
14734;SDS011;7458;49.002;8.472;2023-06-01T08:20:27;1204.90;;;999.90;;
14734;SDS011;7458;49.002;8.472;2023-06-01T08:22:54;1211.25;;;999.90;;
14734;SDS011;7458;49.002;8.472;2023-06-01T08:25:20;1201.75;;;999.90;;
14734;SDS011;7458;49.002;8.472;2023-06-01T08:27:47;1129.22;;;999.90;;
14734;SDS011;7458;49.002;8.472;2023-06-01T08:30:13;1116.85;;;998.55;;
14734;SDS011;7458;49.002;8.472;2023-06-01T08:32:39;1144.00;;;999.90;;
14734;SDS011;7458;49.002;8.472;2023-06-01T08:35:08;1191.53;;;999.90;;
14734;SDS011;7458;49.002;8.472;2023-06-01T08:37:34;1202.18;;;999.90;;
14734;SDS011;7458;49.002;8.472;2023-06-01T08:40:00;1159.57;;;999.90;;
14734;SDS011;7458;49.002;8.472;2023-06-01T08:45:11;1204.05;;;999.90;;
14734;SDS011;7458;49.002;8.472;2023-06-01T08:47:38;1125.55;;;999.90;;
14734;SDS011;7458;49.002;8.472;2023-06-01T08:50:08;1098.43;;;978.17;;
14734;SDS011;7458;49.002;8.472;2023-06-01T08:52:35;1183.30;;;999.90;;
14734;SDS011;7458;49.002;8.472;2023-06-01T08:55:03;1113.95;;;929.58;;
14734;SDS011;7458;49.002;8.472;2023-06-01T08:57:30;1170.85;;;999.90;;
14734;SDS011;7458;49.002;8.472;2023-06-01T08:59:56;1172.18;;;999.90;;
14734;SDS011;7458;49.002;8.472;2023-06-01T09:02:24;1184.50;;;999.90;;
14734;SDS011;7458;49.002;8.472;2023-06-01T09:04:52;1091.97;;;951.42;;
14734;SDS011;7458;49.002;8.472;2023-06-01T09:07:18;1169.60;;;999.90;;
14734;SDS011;7458;49.002;8.472;2023-06-01T09:09:45;1188.22;;;999.90;;
14734;SDS011;7458;49.002;8.472;2023-06-01T09:17:37;1157.75;;;999.90;;
14734;SDS011;7458;49.002;8.472;2023-06-01T09:20:05;1077.07;;;958.28;;
14734;SDS011;7458;49.002;8.472;2023-06-01T09:25:05;1165.65;;;999.90;;
14734;SDS011;7458;49.002;8.472;2023-06-01T09:27:48;1077.40;;;959.42;;
14734;SDS011;7458;49.002;8.472;2023-06-01T09:30:16;1155.35;;;999.90;;
14734;SDS011;7458;49.002;8.472;2023-06-01T09:32:45;1149.97;;;999.90;;
14734;SDS011;7458;49.002;8.472;2023-06-01T09:40:31;1104.15;;;924.90;;
14734;SDS011;7458;49.002;8.472;2023-06-01T09:42:59;1086.63;;;946.65;;
14734;SDS011;7458;49.002;8.472;2023-06-01T09:45:27;1074.28;;;939.15;;
14734;SDS011;7458;49.002;8.472;2023-06-01T09:48:01;1095.88;;;911.55;;
14734;SDS011;7458;49.002;8.472;2023-06-01T09:50:46;1127.05;;;908.88;;
14734;SDS011;7458;49.002;8.472;2023-06-01T09:53:11;1093.25;;;931.17;;
14734;SDS011;7458;49.002;8.472;2023-06-01T09:55:43;1153.60;;;999.90;;
14734;SDS011;7458;49.002;8.472;2023-06-01T09:58:26;1077.75;;;947.60;;
14734;SDS011;7458;49.002;8.472;2023-06-01T10:00:52;1149.53;;;999.90;;
14734;SDS011;7458;49.002;8.472;2023-06-01T10:03:20;1151.82;;;999.90;;
14734;SDS011;7458;49.002;8.472;2023-06-01T10:05:48;1082.07;;;953.15;;
14734;SDS011;7458;49.002;8.472;2023-06-01T10:08:15;1153.30;;;999.90;;
14734;SDS011;7458;49.002;8.472;2023-06-01T10:10:43;1075.40;;;945.80;;
14734;SDS011;7458;49.002;8.472;2023-06-01T10:13:12;1073.80;;;955.50;;
14734;SDS011;7458;49.002;8.472;2023-06-01T10:15:38;1157.95;;;999.90;;
14734;SDS011;7458;49.002;8.472;2023-06-01T10:18:05;1079.72;;;951.13;;
14734;SDS011;7458;49.002;8.472;2023-06-01T10:20:35;1147.43;;;999.90;;
14734;SDS011;7458;49.002;8.472;2023-06-01T10:23:04;1080.22;;;962.55;;
14734;SDS011;7458;49.002;8.472;2023-06-01T10:25:32;1083.78;;;966.13;;
14734;SDS011;7458;49.002;8.472;2023-06-01T10:30:35;1100.88;;;934.10;;
14734;SDS011;7458;49.002;8.472;2023-06-01T10:33:01;1076.07;;;956.63;;
14734;SDS011;7458;49.002;8.472;2023-06-01T10:38:30;1090.00;;;972.08;;
14734;SDS011;7458;49.002;8.472;2023-06-01T10:40:49;1107.60;;;988.55;;
14734;SDS011;7458;49.002;8.472;2023-06-01T10:46:00;1171.95;;;999.90;;
14734;SDS011;7458;49.002;8.472;2023-06-01T10:51:20;1171.55;;;999.90;;
14734;SDS011;7458;49.002;8.472;2023-06-01T10:53:49;1173.85;;;999.90;;
14734;SDS011;7458;49.002;8.472;2023-06-01T10:56:25;1178.63;;;999.90;;
14734;SDS011;7458;49.002;8.472;2023-06-01T11:01:44;1173.15;;;999.90;;
14734;SDS011;7458;49.002;8.472;2023-06-01T11:04:12;1187.35;;;999.90;;
14734;SDS011;7458;49.002;8.472;2023-06-01T11:06:39;1141.40;;;999.90;;
14734;SDS011;7458;49.002;8.472;2023-06-01T11:09:07;1143.15;;;999.90;;
14734;SDS011;7458;49.002;8.472;2023-06-01T11:14:15;1183.65;;;999.90;;
14734;SDS011;7458;49.002;8.472;2023-06-01T11:16:44;1184.30;;;999.90;;
14734;SDS011;7458;49.002;8.472;2023-06-01T11:19:10;1150.22;;;999.90;;
14734;SDS011;7458;49.002;8.472;2023-06-01T11:21:43;1184.13;;;999.90;;
14734;SDS011;7458;49.002;8.472;2023-06-01T11:24:13;1144.22;;;999.90;;
14734;SDS011;7458;49.002;8.472;2023-06-01T11:26:47;1177.63;;;999.90;;
14734;SDS011;7458;49.002;8.472;2023-06-01T11:31:49;1168.07;;;999.90;;
14734;SDS011;7458;49.002;8.472;2023-06-01T11:37:15;1173.95;;;999.90;;
14734;SDS011;7458;49.002;8.472;2023-06-01T11:39:43;1178.90;;;999.90;;
14734;SDS011;7458;49.002;8.472;2023-06-01T11:42:17;1180.80;;;999.90;;
14734;SDS011;7458;49.002;8.472;2023-06-01T11:44:45;1146.38;;;999.90;;
14734;SDS011;7458;49.002;8.472;2023-06-01T11:47:27;1122.20;;;999.75;;
14734;SDS011;7458;49.002;8.472;2023-06-01T11:49:54;1137.60;;;999.90;;
14734;SDS011;7458;49.002;8.472;2023-06-01T11:52:20;1176.05;;;999.90;;
14734;SDS011;7458;49.002;8.472;2023-06-01T11:54:47;1168.28;;;999.90;;
14734;SDS011;7458;49.002;8.472;2023-06-01T11:57:14;1143.10;;;999.90;;
14734;SDS011;7458;49.002;8.472;2023-06-01T11:59:44;1138.82;;;999.90;;
14734;SDS011;7458;49.002;8.472;2023-06-01T12:02:18;1133.88;;;999.90;;
14734;SDS011;7458;49.002;8.472;2023-06-01T12:07:31;1098.43;;;917.65;;
14734;SDS011;7458;49.002;8.472;2023-06-01T12:09:57;1076.38;;;947.97;;
14734;SDS011;7458;49.002;8.472;2023-06-01T12:12:26;1091.35;;;974.35;;
14734;SDS011;7458;49.002;8.472;2023-06-01T12:14:54;1100.35;;;983.03;;
14734;SDS011;7458;49.002;8.472;2023-06-01T12:17:20;1149.15;;;999.90;;
14734;SDS011;7458;49.002;8.472;2023-06-01T12:19:46;1146.35;;;999.90;;
14734;SDS011;7458;49.002;8.472;2023-06-01T12:22:14;1153.80;;;999.90;;
14734;SDS011;7458;49.002;8.472;2023-06-01T12:24:42;1091.55;;;974.78;;
14734;SDS011;7458;49.002;8.472;2023-06-01T12:27:15;1147.57;;;999.90;;
14734;SDS011;7458;49.002;8.472;2023-06-01T12:29:44;1084.93;;;969.95;;
14734;SDS011;7458;49.002;8.472;2023-06-01T12:32:13;1100.15;;;983.55;;
14734;SDS011;7458;49.002;8.472;2023-06-01T12:34:43;1137.70;;;999.90;;
14734;SDS011;7458;49.002;8.472;2023-06-01T12:39:43;1164.93;;;999.90;;
14734;SDS011;7458;49.002;8.472;2023-06-01T12:42:17;1159.43;;;999.90;;
14734;SDS011;7458;49.002;8.472;2023-06-01T12:44:43;1130.28;;;999.90;;
14734;SDS011;7458;49.002;8.472;2023-06-01T12:47:11;1155.47;;;999.90;;
14734;SDS011;7458;49.002;8.472;2023-06-01T12:49:37;1156.43;;;999.90;;
14734;SDS011;7458;49.002;8.472;2023-06-01T12:52:04;1134.10;;;999.90;;
14734;SDS011;7458;49.002;8.472;2023-06-01T12:54:31;1166.05;;;999.90;;
14734;SDS011;7458;49.002;8.472;2023-06-01T12:56:57;1131.50;;;999.90;;
14734;SDS011;7458;49.002;8.472;2023-06-01T12:59:22;1163.88;;;999.90;;
14734;SDS011;7458;49.002;8.472;2023-06-01T13:01:48;1085.28;;;969.08;;
14734;SDS011;7458;49.002;8.472;2023-06-01T13:04:14;1042.50;;;928.38;;
14734;SDS011;7458;49.002;8.472;2023-06-01T13:06:40;1070.97;;;954.95;;
14734;SDS011;7458;49.002;8.472;2023-06-01T13:09:06;1025.43;;;906.55;;
14734;SDS011;7458;49.002;8.472;2023-06-01T13:11:32;1025.60;;;892.10;;
14734;SDS011;7458;49.002;8.472;2023-06-01T13:13:58;1016.13;;;869.65;;
14734;SDS011;7458;49.002;8.472;2023-06-01T13:16:24;1110.82;;;994.20;;
14734;SDS011;7458;49.002;8.472;2023-06-01T13:18:50;1101.30;;;984.30;;
14734;SDS011;7458;49.002;8.472;2023-06-01T13:21:18;1054.22;;;939.67;;
14734;SDS011;7458;49.002;8.472;2023-06-01T13:23:44;1077.97;;;962.17;;
14734;SDS011;7458;49.002;8.472;2023-06-01T13:26:10;1132.30;;;999.90;;
14734;SDS011;7458;49.002;8.472;2023-06-01T13:28:40;1107.35;;;989.80;;
14734;SDS011;7458;49.002;8.472;2023-06-01T13:31:05;1006.53;;;842.83;;
14734;SDS011;7458;49.002;8.472;2023-06-01T13:33:31;999.38;;;795.20;;
14734;SDS011;7458;49.002;8.472;2023-06-01T13:35:57;991.03;;;758.58;;
14734;SDS011;7458;49.002;8.472;2023-06-01T13:38:23;973.75;;;740.25;;
14734;SDS011;7458;49.002;8.472;2023-06-01T13:40:49;1166.60;;;999.90;;
14734;SDS011;7458;49.002;8.472;2023-06-01T13:43:15;1163.03;;;999.90;;
14734;SDS011;7458;49.002;8.472;2023-06-01T13:45:41;1162.97;;;999.90;;
14734;SDS011;7458;49.002;8.472;2023-06-01T13:48:07;1156.90;;;999.90;;
14734;SDS011;7458;49.002;8.472;2023-06-01T13:50:32;1158.15;;;999.90;;
14734;SDS011;7458;49.002;8.472;2023-06-01T13:52:58;1148.45;;;999.90;;
14734;SDS011;7458;49.002;8.472;2023-06-01T13:55:24;1080.80;;;965.60;;
14734;SDS011;7458;49.002;8.472;2023-06-01T13:57:51;968.67;;;848.45;;
14734;SDS011;7458;49.002;8.472;2023-06-01T14:00:16;1097.70;;;980.67;;
14734;SDS011;7458;49.002;8.472;2023-06-01T14:02:42;1144.43;;;999.90;;
14734;SDS011;7458;49.002;8.472;2023-06-01T14:05:08;1054.85;;;926.00;;
14734;SDS011;7458;49.002;8.472;2023-06-01T14:07:35;1143.13;;;999.90;;
14734;SDS011;7458;49.002;8.472;2023-06-01T14:10:01;1147.25;;;999.90;;
14734;SDS011;7458;49.002;8.472;2023-06-01T14:12:27;1144.20;;;999.90;;
14734;SDS011;7458;49.002;8.472;2023-06-01T14:14:53;1074.55;;;957.55;;
14734;SDS011;7458;49.002;8.472;2023-06-01T14:17:19;1136.25;;;999.90;;
14734;SDS011;7458;49.002;8.472;2023-06-01T14:19:45;1140.85;;;999.90;;
14734;SDS011;7458;49.002;8.472;2023-06-01T14:22:10;1119.65;;;999.75;;
14734;SDS011;7458;49.002;8.472;2023-06-01T14:24:36;1152.40;;;999.90;;
14734;SDS011;7458;49.002;8.472;2023-06-01T14:27:02;1154.43;;;999.90;;
14734;SDS011;7458;49.002;8.472;2023-06-01T14:29:28;1151.85;;;999.90;;
14734;SDS011;7458;49.002;8.472;2023-06-01T14:31:54;1146.10;;;999.90;;
14734;SDS011;7458;49.002;8.472;2023-06-01T14:34:19;1118.78;;;998.97;;
14734;SDS011;7458;49.002;8.472;2023-06-01T14:36:45;1023.75;;;908.92;;
14734;SDS011;7458;49.002;8.472;2023-06-01T14:39:11;1020.22;;;888.47;;
14734;SDS011;7458;49.002;8.472;2023-06-01T14:41:37;1137.00;;;999.90;;
14734;SDS011;7458;49.002;8.472;2023-06-01T14:44:04;1005.38;;;872.88;;
14734;SDS011;7458;49.002;8.472;2023-06-01T14:46:30;981.88;;;778.72;;
14734;SDS011;7458;49.002;8.472;2023-06-01T14:48:55;963.55;;;767.13;;
14734;SDS011;7458;49.002;8.472;2023-06-01T14:51:23;927.50;;;751.03;;
14734;SDS011;7458;49.002;8.472;2023-06-01T14:53:48;948.70;;;811.63;;
14734;SDS011;7458;49.002;8.472;2023-06-01T14:56:14;964.83;;;741.15;;
14734;SDS011;7458;49.002;8.472;2023-06-01T14:58:40;960.88;;;786.83;;
14734;SDS011;7458;49.002;8.472;2023-06-01T15:01:05;1056.13;;;941.33;;
14734;SDS011;7458;49.002;8.472;2023-06-01T15:03:31;1085.75;;;970.13;;
14734;SDS011;7458;49.002;8.472;2023-06-01T15:05:57;1133.75;;;999.90;;